sensor_id;sensor_type;location;lat;lon;timestamp;pressure;altitude;pressure_sealevel;temperature;humidity
45369;BME280;51342;55.250;37.668;2023-07-29T00:01:52;98547.16;;;16.53;80.66
45369;BME280;51342;55.250;37.668;2023-07-29T00:04:25;98545.41;;;16.52;80.59
45369;BME280;51342;55.250;37.668;2023-07-29T00:06:56;98537.59;;;16.53;80.54
45369;BME280;51342;55.250;37.668;2023-07-29T00:09:27;98534.13;;;16.53;80.35
45369;BME280;51342;55.250;37.668;2023-07-29T00:11:59;98531.44;;;16.48;80.20
45369;BME280;51342;55.250;37.668;2023-07-29T00:14:30;98539.25;;;16.48;80.29
45369;BME280;51342;55.250;37.668;2023-07-29T00:17:02;98533.16;;;16.48;79.98
45369;BME280;51342;55.250;37.668;2023-07-29T00:19:33;98526.19;;;16.45;80.28
45369;BME280;51342;55.250;37.668;2023-07-29T00:22:05;98518.31;;;16.43;80.18
45369;BME280;51342;55.250;37.668;2023-07-29T00:24:39;98517.41;;;16.40;80.12
45369;BME280;51342;55.250;37.668;2023-07-29T00:27:11;98513.00;;;16.37;80.03
45369;BME280;51342;55.250;37.668;2023-07-29T00:29:42;98521.69;;;16.38;80.33
45369;BME280;51342;55.250;37.668;2023-07-29T00:32:14;98526.13;;;16.42;80.64
45369;BME280;51342;55.250;37.668;2023-07-29T00:34:45;98520.03;;;16.43;80.74
45369;BME280;51342;55.250;37.668;2023-07-29T00:37:16;98513.94;;;16.42;80.53
45369;BME280;51342;55.250;37.668;2023-07-29T00:39:50;98527.88;;;16.44;80.61
45369;BME280;51342;55.250;37.668;2023-07-29T00:42:22;98514.84;;;16.44;80.52
45369;BME280;51342;55.250;37.668;2023-07-29T00:44:53;98503.50;;;16.42;80.57
45369;BME280;51342;55.250;37.668;2023-07-29T00:47:25;98500.88;;;16.39;80.77
45369;BME280;51342;55.250;37.668;2023-07-29T00:49:56;98498.25;;;16.39;80.92
45369;BME280;51342;55.250;37.668;2023-07-29T00:52:28;98494.72;;;16.36;81.30
45369;BME280;51342;55.250;37.668;2023-07-29T00:55:00;98503.41;;;16.36;81.24
45369;BME280;51342;55.250;37.668;2023-07-29T00:57:32;98518.22;;;16.37;81.20
45369;BME280;51342;55.250;37.668;2023-07-29T01:00:04;98509.50;;;16.37;81.29
45369;BME280;51342;55.250;37.668;2023-07-29T01:02:36;98516.53;;;16.39;81.55
45369;BME280;51342;55.250;37.668;2023-07-29T01:05:08;98506.09;;;16.39;81.46
45369;BME280;51342;55.250;37.668;2023-07-29T01:08:21;98517.34;;;16.37;81.58
45369;BME280;51342;55.250;37.668;2023-07-29T01:13:33;98511.84;;;16.19;82.12
45369;BME280;51342;55.250;37.668;2023-07-29T01:16:09;98512.56;;;16.10;82.26
45369;BME280;51342;55.250;37.668;2023-07-29T01:18:46;98499.69;;;16.22;81.55
45369;BME280;51342;55.250;37.668;2023-07-29T01:21:19;98500.63;;;16.24;81.43
45369;BME280;51342;55.250;37.668;2023-07-29T01:23:52;98499.84;;;16.30;81.23
45369;BME280;51342;55.250;37.668;2023-07-29T01:30:10;98525.88;;;16.27;81.39
45369;BME280;51342;55.250;37.668;2023-07-29T01:33:05;98530.22;;;16.26;81.17
45369;BME280;51342;55.250;37.668;2023-07-29T01:35:46;98542.47;;;16.30;81.11
45369;BME280;51342;55.250;37.668;2023-07-29T01:38:20;98551.97;;;16.27;80.94
45369;BME280;51342;55.250;37.668;2023-07-29T01:40:55;98562.94;;;16.06;81.77
45369;BME280;51342;55.250;37.668;2023-07-29T01:43:28;98567.53;;;16.21;81.46
45369;BME280;51342;55.250;37.668;2023-07-29T01:46:00;98570.25;;;16.27;81.09
45369;BME280;51342;55.250;37.668;2023-07-29T01:48:32;98569.38;;;16.26;80.96
45369;BME280;51342;55.250;37.668;2023-07-29T01:51:03;98565.00;;;16.25;81.02
45369;BME280;51342;55.250;37.668;2023-07-29T01:53:35;98571.97;;;16.26;80.63
45369;BME280;51342;55.250;37.668;2023-07-29T01:56:07;98571.09;;;16.26;80.68
45369;BME280;51342;55.250;37.668;2023-07-29T01:58:40;98557.16;;;16.24;80.27
45369;BME280;51342;55.250;37.668;2023-07-29T02:01:11;98543.19;;;16.22;80.41
45369;BME280;51342;55.250;37.668;2023-07-29T02:03:43;98534.47;;;16.21;80.46
45369;BME280;51342;55.250;37.668;2023-07-29T02:06:14;98524.03;;;16.21;79.87
45369;BME280;51342;55.250;37.668;2023-07-29T02:08:46;98521.44;;;16.21;80.07
45369;BME280;51342;55.250;37.668;2023-07-29T02:11:20;98519.66;;;16.17;80.08
45369;BME280;51342;55.250;37.668;2023-07-29T02:13:58;98516.13;;;16.15;80.23
45369;BME280;51342;55.250;37.668;2023-07-29T02:16:29;98517.00;;;16.15;80.38
45369;BME280;51342;55.250;37.668;2023-07-29T02:19:01;98512.63;;;16.13;80.50
45369;BME280;51342;55.250;37.668;2023-07-29T02:21:32;98509.09;;;16.11;80.44
45369;BME280;51342;55.250;37.668;2023-07-29T02:24:04;98507.34;;;16.10;80.67
45369;BME280;51342;55.250;37.668;2023-07-29T02:26:35;98505.59;;;16.09;80.81
45369;BME280;51342;55.250;37.668;2023-07-29T02:29:07;98504.72;;;16.10;80.57
45369;BME280;51342;55.250;37.668;2023-07-29T02:31:38;98504.69;;;16.05;80.70
45369;BME280;51342;55.250;37.668;2023-07-29T02:34:09;98506.38;;;16.03;80.62
45369;BME280;51342;55.250;37.668;2023-07-29T02:36:41;98507.25;;;16.04;80.80
45369;BME280;51342;55.250;37.668;2023-07-29T02:39:12;98502.00;;;16.01;80.99
45369;BME280;51342;55.250;37.668;2023-07-29T02:41:44;98500.28;;;16.03;81.08
45369;BME280;51342;55.250;37.668;2023-07-29T02:44:15;98505.56;;;16.06;80.58
45369;BME280;51342;55.250;37.668;2023-07-29T02:46:47;98502.91;;;16.04;80.92
45369;BME280;51342;55.250;37.668;2023-07-29T02:49:18;98501.22;;;16.06;80.93
45369;BME280;51342;55.250;37.668;2023-07-29T02:51:50;98503.78;;;16.05;81.20
45369;BME280;51342;55.250;37.668;2023-07-29T02:54:21;98502.00;;;16.02;81.06
45369;BME280;51342;55.250;37.668;2023-07-29T02:56:53;98497.66;;;16.01;80.83
45369;BME280;51342;55.250;37.668;2023-07-29T02:59:24;98482.00;;;16.01;81.19
45369;BME280;51342;55.250;37.668;2023-07-29T03:01:56;98477.59;;;15.99;81.13
45369;BME280;51342;55.250;37.668;2023-07-29T03:04:27;98468.00;;;15.98;81.25
45369;BME280;51342;55.250;37.668;2023-07-29T03:06:58;98475.91;;;16.02;81.30
45369;BME280;51342;55.250;37.668;2023-07-29T03:09:31;98475.84;;;15.98;80.89
45369;BME280;51342;55.250;37.668;2023-07-29T03:12:02;98474.09;;;15.97;80.96
45369;BME280;51342;55.250;37.668;2023-07-29T03:14:34;98476.72;;;15.98;80.79
45369;BME280;51342;55.250;37.668;2023-07-29T03:17:05;98484.53;;;15.97;80.91
45369;BME280;51342;55.250;37.668;2023-07-29T03:19:37;98487.13;;;15.95;81.03
45369;BME280;51342;55.250;37.668;2023-07-29T03:22:08;98487.91;;;15.91;80.85
45369;BME280;51342;55.250;37.668;2023-07-29T03:24:40;98482.72;;;15.93;81.00
45369;BME280;51342;55.250;37.668;2023-07-29T03:30:08;98478.41;;;15.95;81.33
45369;BME280;51342;55.250;37.668;2023-07-29T03:32:43;98478.44;;;15.96;80.91
45369;BME280;51342;55.250;37.668;2023-07-29T03:35:18;98460.09;;;15.92;80.82
45369;BME280;51342;55.250;37.668;2023-07-29T03:37:50;98468.00;;;15.98;81.48
45369;BME280;51342;55.250;37.668;2023-07-29T03:40:22;98465.38;;;15.96;81.06
45369;BME280;51342;55.250;37.668;2023-07-29T03:42:53;98458.34;;;15.92;81.02
45369;BME280;51342;55.250;37.668;2023-07-29T03:45:24;98449.66;;;15.92;81.12
45369;BME280;51342;55.250;37.668;2023-07-29T03:47:56;98454.00;;;15.93;81.07
45369;BME280;51342;55.250;37.668;2023-07-29T03:50:28;98455.81;;;15.97;81.42
45369;BME280;51342;55.250;37.668;2023-07-29T03:53:00;98454.09;;;15.99;81.17
45369;BME280;51342;55.250;37.668;2023-07-29T03:55:32;98447.22;;;16.01;80.88
45369;BME280;51342;55.250;37.668;2023-07-29T03:58:03;98447.22;;;16.01;80.86
45369;BME280;51342;55.250;37.668;2023-07-29T04:00:35;98450.69;;;16.01;81.03
45369;BME280;51342;55.250;37.668;2023-07-29T04:03:07;98460.28;;;16.04;81.15
45369;BME280;51342;55.250;37.668;2023-07-29T04:05:38;98454.19;;;16.05;80.90
45369;BME280;51342;55.250;37.668;2023-07-29T04:08:10;98442.00;;;16.01;81.04
45369;BME280;51342;55.250;37.668;2023-07-29T04:10:41;98446.34;;;16.02;81.00
45369;BME280;51342;55.250;37.668;2023-07-29T04:13:12;98456.78;;;16.02;80.91
45369;BME280;51342;55.250;37.668;2023-07-29T04:15:44;98449.00;;;16.05;81.15
45369;BME280;51342;55.250;37.668;2023-07-29T04:18:16;98451.59;;;16.05;80.97
45369;BME280;51342;55.250;37.668;2023-07-29T04:20:48;98454.25;;;16.06;81.13
45369;BME280;51342;55.250;37.668;2023-07-29T04:23:19;98462.97;;;16.08;81.14
45369;BME280;51342;55.250;37.668;2023-07-29T04:25:51;98455.97;;;16.06;80.90
45369;BME280;51342;55.250;37.668;2023-07-29T04:28:23;98457.66;;;16.04;81.19
45369;BME280;51342;55.250;37.668;2023-07-29T04:30:54;98452.50;;;16.05;81.35
45369;BME280;51342;55.250;37.668;2023-07-29T04:33:26;98452.53;;;16.08;81.41
45369;BME280;51342;55.250;37.668;2023-07-29T04:35:57;98454.28;;;16.09;81.01
45369;BME280;51342;55.250;37.668;2023-07-29T04:38:32;98443.81;;;16.06;80.93
45369;BME280;51342;55.250;37.668;2023-07-29T04:41:04;98450.72;;;16.04;80.74
45369;BME280;51342;55.250;37.668;2023-07-29T04:43:38;98451.56;;;16.02;80.90
45369;BME280;51342;55.250;37.668;2023-07-29T04:46:09;98447.16;;;15.99;81.02
45369;BME280;51342;55.250;37.668;2023-07-29T04:48:41;98441.06;;;15.99;81.20
45369;BME280;51342;55.250;37.668;2023-07-29T04:51:12;98442.88;;;16.01;81.23
45369;BME280;51342;55.250;37.668;2023-07-29T04:53:45;98436.78;;;16.01;80.91
45369;BME280;51342;55.250;37.668;2023-07-29T04:56:16;98428.94;;;16.01;81.20
45369;BME280;51342;55.250;37.668;2023-07-29T04:58:50;98421.13;;;16.02;81.06
45369;BME280;51342;55.250;37.668;2023-07-29T05:01:21;98418.50;;;16.01;81.24
45369;BME280;51342;55.250;37.668;2023-07-29T05:03:53;98410.69;;;16.01;80.86
45369;BME280;51342;55.250;37.668;2023-07-29T05:06:24;98410.72;;;16.04;80.80
45369;BME280;51342;55.250;37.668;2023-07-29T05:09:15;98413.22;;;15.98;80.42
45369;BME280;51342;55.250;37.668;2023-07-29T05:11:47;98416.81;;;16.04;80.98
45369;BME280;51342;55.250;37.668;2023-07-29T05:14:20;98407.22;;;16.03;80.96
45369;BME280;51342;55.250;37.668;2023-07-29T05:16:51;98418.59;;;16.05;80.92
45369;BME280;51342;55.250;37.668;2023-07-29T05:19:23;98419.41;;;16.04;80.75
45369;BME280;51342;55.250;37.668;2023-07-29T05:21:55;98418.59;;;16.05;81.02
45369;BME280;51342;55.250;37.668;2023-07-29T05:24:27;98433.41;;;16.09;80.71
45369;BME280;51342;55.250;37.668;2023-07-29T05:26:59;98451.69;;;16.11;80.83
45369;BME280;51342;55.250;37.668;2023-07-29T05:29:31;98451.69;;;16.11;81.08
45369;BME280;51342;55.250;37.668;2023-07-29T05:32:02;98444.75;;;16.11;81.14
45369;BME280;51342;55.250;37.668;2023-07-29T05:34:34;98448.19;;;16.10;80.71
45369;BME280;51342;55.250;37.668;2023-07-29T05:37:06;98450.81;;;16.10;80.68
45369;BME280;51342;55.250;37.668;2023-07-29T05:39:37;98448.16;;;16.06;80.77
45369;BME280;51342;55.250;37.668;2023-07-29T05:42:08;98446.44;;;16.09;81.03
45369;BME280;51342;55.250;37.668;2023-07-29T05:44:40;98446.50;;;16.12;81.13
45369;BME280;51342;55.250;37.668;2023-07-29T05:47:11;98461.38;;;16.18;81.32
45369;BME280;51342;55.250;37.668;2023-07-29T05:49:43;98466.56;;;16.16;80.81
45369;BME280;51342;55.250;37.668;2023-07-29T05:52:15;98472.63;;;16.15;80.98
45369;BME280;51342;55.250;37.668;2023-07-29T05:54:46;98484.81;;;16.16;81.07
45369;BME280;51342;55.250;37.668;2023-07-29T05:57:17;98487.47;;;16.18;80.90
45369;BME280;51342;55.250;37.668;2023-07-29T05:59:49;98485.72;;;16.17;80.79
45369;BME280;51342;55.250;37.668;2023-07-29T06:02:20;98490.03;;;16.16;80.89
45369;BME280;51342;55.250;37.668;2023-07-29T06:04:51;98484.00;;;16.17;81.22
45369;BME280;51342;55.250;37.668;2023-07-29T06:07:23;98480.50;;;16.17;80.78
45369;BME280;51342;55.250;37.668;2023-07-29T06:09:54;98478.81;;;16.21;81.07
45369;BME280;51342;55.250;37.668;2023-07-29T06:12:26;98491.88;;;16.22;81.20
45369;BME280;51342;55.250;37.668;2023-07-29T06:14:58;98488.44;;;16.23;80.88
45369;BME280;51342;55.250;37.668;2023-07-29T06:17:29;98481.44;;;16.22;80.52
45369;BME280;51342;55.250;37.668;2023-07-29T06:20:01;98490.16;;;16.23;80.63
45369;BME280;51342;55.250;37.668;2023-07-29T06:22:32;98485.81;;;16.23;80.66
45369;BME280;51342;55.250;37.668;2023-07-29T06:25:04;98482.34;;;16.24;80.67
45369;BME280;51342;55.250;37.668;2023-07-29T06:27:35;98488.47;;;16.26;80.63
45369;BME280;51342;55.250;37.668;2023-07-29T06:30:07;98490.19;;;16.26;80.43
45369;BME280;51342;55.250;37.668;2023-07-29T06:32:38;98487.56;;;16.23;80.77
45369;BME280;51342;55.250;37.668;2023-07-29T06:35:10;98487.56;;;16.23;80.57
45369;BME280;51342;55.250;37.668;2023-07-29T06:37:41;98493.69;;;16.26;80.73
45369;BME280;51342;55.250;37.668;2023-07-29T06:40:12;98480.66;;;16.28;81.06
45369;BME280;51342;55.250;37.668;2023-07-29T06:42:44;98486.78;;;16.28;81.09
45369;BME280;51342;55.250;37.668;2023-07-29T06:45:15;98485.06;;;16.30;81.04
45369;BME280;51342;55.250;37.668;2023-07-29T06:47:46;98494.69;;;16.34;81.20
45369;BME280;51342;55.250;37.668;2023-07-29T06:50:18;98492.97;;;16.35;80.93
45369;BME280;51342;55.250;37.668;2023-07-29T06:52:49;98486.81;;;16.33;80.95
45369;BME280;51342;55.250;37.668;2023-07-29T06:55:20;98492.09;;;16.34;80.66
45369;BME280;51342;55.250;37.668;2023-07-29T06:57:52;98496.44;;;16.34;80.86
45369;BME280;51342;55.250;37.668;2023-07-29T07:00:23;98493.84;;;16.35;80.49
45369;BME280;51342;55.250;37.668;2023-07-29T07:02:55;98488.59;;;16.34;80.58
45369;BME280;51342;55.250;37.668;2023-07-29T07:05:27;98492.91;;;16.32;81.05
45369;BME280;51342;55.250;37.668;2023-07-29T07:07:58;98502.53;;;16.34;81.65
45369;BME280;51342;55.250;37.668;2023-07-29T07:10:30;98499.94;;;16.36;81.12
45369;BME280;51342;55.250;37.668;2023-07-29T07:13:01;98501.66;;;16.35;81.45
45369;BME280;51342;55.250;37.668;2023-07-29T07:15:32;98509.53;;;16.38;81.84
45369;BME280;51342;55.250;37.668;2023-07-29T07:18:04;98506.09;;;16.39;81.51
45369;BME280;51342;55.250;37.668;2023-07-29T07:20:35;98505.19;;;16.39;81.80
45369;BME280;51342;55.250;37.668;2023-07-29T07:23:07;98501.69;;;16.37;81.83
45369;BME280;51342;55.250;37.668;2023-07-29T07:25:42;98505.19;;;16.39;82.04
45369;BME280;51342;55.250;37.668;2023-07-29T07:31:09;98506.97;;;16.40;82.50
45369;BME280;51342;55.250;37.668;2023-07-29T07:33:55;98502.56;;;16.37;82.30
45369;BME280;51342;55.250;37.668;2023-07-29T07:36:35;98497.41;;;16.40;82.24
45369;BME280;51342;55.250;37.668;2023-07-29T07:39:31;98507.00;;;16.43;82.65
45369;BME280;51342;55.250;37.668;2023-07-29T07:42:04;98507.84;;;16.42;82.56
45369;BME280;51342;55.250;37.668;2023-07-29T07:44:48;98512.28;;;16.46;82.89
45369;BME280;51342;55.250;37.668;2023-07-29T07:47:33;98512.28;;;16.49;82.76
45369;BME280;51342;55.250;37.668;2023-07-29T07:50:30;98516.63;;;16.47;82.37
45369;BME280;51342;55.250;37.668;2023-07-29T07:53:13;98514.00;;;16.46;82.30
45369;BME280;51342;55.250;37.668;2023-07-29T07:56:21;98512.22;;;16.44;82.55
45369;BME280;51342;55.250;37.668;2023-07-29T07:59:15;98525.28;;;16.44;82.49
45369;BME280;51342;55.250;37.668;2023-07-29T08:01:48;98524.50;;;16.50;82.47
45369;BME280;51342;55.250;37.668;2023-07-29T08:05:12;98527.00;;;16.42;81.79
45369;BME280;51342;55.250;37.668;2023-07-29T08:08:09;98519.16;;;16.42;81.85
45369;BME280;51342;55.250;37.668;2023-07-29T08:10:47;98512.19;;;16.40;82.22
45369;BME280;51342;55.250;37.668;2023-07-29T08:13:21;98519.19;;;16.44;82.24
45369;BME280;51342;55.250;37.668;2023-07-29T08:16:06;98509.66;;;16.46;82.38
45369;BME280;51342;55.250;37.668;2023-07-29T08:18:59;98516.56;;;16.42;81.65
45369;BME280;51342;55.250;37.668;2023-07-29T08:21:59;98521.66;;;16.35;81.86
45369;BME280;51342;55.250;37.668;2023-07-29T08:24:35;98519.94;;;16.35;81.59
45369;BME280;51342;55.250;37.668;2023-07-29T08:27:09;98520.03;;;16.41;81.81
45369;BME280;51342;55.250;37.668;2023-07-29T08:30:00;98517.41;;;16.40;81.94
45369;BME280;51342;55.250;37.668;2023-07-29T08:32:52;98518.28;;;16.40;81.56
45369;BME280;51342;55.250;37.668;2023-07-29T08:35:33;98518.28;;;16.40;81.78
45369;BME280;51342;55.250;37.668;2023-07-29T08:38:10;98518.31;;;16.43;81.98
45369;BME280;51342;55.250;37.668;2023-07-29T08:41:19;98532.19;;;16.39;82.13
45369;BME280;51342;55.250;37.668;2023-07-29T08:44:22;98526.09;;;16.40;82.38
45369;BME280;51342;55.250;37.668;2023-07-29T08:47:26;98527.78;;;16.38;82.11
45369;BME280;51342;55.250;37.668;2023-07-29T08:50:17;98526.97;;;16.39;82.29
45369;BME280;51342;55.250;37.668;2023-07-29T08:56:14;98527.84;;;16.41;81.44
45369;BME280;51342;55.250;37.668;2023-07-29T08:59:04;98527.78;;;16.38;81.84
45369;BME280;51342;55.250;37.668;2023-07-29T09:02:02;98515.59;;;16.37;81.64
45369;BME280;51342;55.250;37.668;2023-07-29T09:07:42;98525.19;;;16.38;81.68
45369;BME280;51342;55.250;37.668;2023-07-29T09:10:45;98528.66;;;16.37;81.42
45369;BME280;51342;55.250;37.668;2023-07-29T09:14:01;98523.34;;;16.31;81.41
45369;BME280;51342;55.250;37.668;2023-07-29T09:16:34;98533.00;;;16.37;81.49
45369;BME280;51342;55.250;37.668;2023-07-29T09:19:27;98528.72;;;16.40;81.56
45369;BME280;51342;55.250;37.668;2023-07-29T09:22:18;98520.78;;;16.34;81.97
45369;BME280;51342;55.250;37.668;2023-07-29T09:25:12;98523.53;;;16.43;81.60
45369;BME280;51342;55.250;37.668;2023-07-29T09:28:10;98520.75;;;16.33;81.56
45369;BME280;51342;55.250;37.668;2023-07-29T09:33:58;98520.91;;;16.42;81.29
45369;BME280;51342;55.250;37.668;2023-07-29T09:36:32;98524.47;;;16.47;81.80
45369;BME280;51342;55.250;37.668;2023-07-29T09:39:11;98525.34;;;16.49;81.77
45369;BME280;51342;55.250;37.668;2023-07-29T09:41:47;98524.47;;;16.49;81.69
45369;BME280;51342;55.250;37.668;2023-07-29T09:44:20;98517.59;;;16.54;81.87
45369;BME280;51342;55.250;37.668;2023-07-29T09:46:52;98522.00;;;16.58;81.78
45369;BME280;51342;55.250;37.668;2023-07-29T09:49:23;98527.25;;;16.59;81.88
45369;BME280;51342;55.250;37.668;2023-07-29T09:51:55;98529.88;;;16.61;81.65
45369;BME280;51342;55.250;37.668;2023-07-29T09:54:27;98531.63;;;16.62;81.82
45369;BME280;51342;55.250;37.668;2023-07-29T09:56:58;98529.00;;;16.62;81.58
45369;BME280;51342;55.250;37.668;2023-07-29T09:59:34;98525.50;;;16.57;81.12
45369;BME280;51342;55.250;37.668;2023-07-29T10:02:13;98527.19;;;16.55;81.44
45369;BME280;51342;55.250;37.668;2023-07-29T10:04:45;98528.09;;;16.57;81.27
45369;BME280;51342;55.250;37.668;2023-07-29T10:07:17;98533.25;;;16.54;81.05
45369;BME280;51342;55.250;37.668;2023-07-29T10:09:52;98535.94;;;16.57;81.18
45369;BME280;51342;55.250;37.668;2023-07-29T10:12:24;98533.28;;;16.55;80.99
45369;BME280;51342;55.250;37.668;2023-07-29T10:14:59;98537.63;;;16.55;81.37
45369;BME280;51342;55.250;37.668;2023-07-29T10:17:35;98539.44;;;16.59;81.10
45369;BME280;51342;55.250;37.668;2023-07-29T10:20:08;98540.31;;;16.61;81.35
45369;BME280;51342;55.250;37.668;2023-07-29T10:22:42;98542.13;;;16.65;81.57
45369;BME280;51342;55.250;37.668;2023-07-29T10:25:18;98543.00;;;16.65;81.93
45369;BME280;51342;55.250;37.668;2023-07-29T10:27:53;98544.78;;;16.68;81.67
45369;BME280;51342;55.250;37.668;2023-07-29T10:30:28;98544.78;;;16.68;81.81
45369;BME280;51342;55.250;37.668;2023-07-29T10:33:02;98545.63;;;16.67;81.28
45369;BME280;51342;55.250;37.668;2023-07-29T10:35:36;98544.00;;;16.72;81.91
45369;BME280;51342;55.250;37.668;2023-07-29T10:38:08;98537.84;;;16.70;81.71
45369;BME280;51342;55.250;37.668;2023-07-29T10:40:48;98535.28;;;16.72;81.77
45369;BME280;51342;55.250;37.668;2023-07-29T10:43:33;98536.22;;;16.75;81.78
45369;BME280;51342;55.250;37.668;2023-07-29T10:46:22;98542.31;;;16.76;81.57
45369;BME280;51342;55.250;37.668;2023-07-29T10:48:55;98532.81;;;16.79;81.03
45369;BME280;51342;55.250;37.668;2023-07-29T10:51:30;98543.19;;;16.76;80.94
45369;BME280;51342;55.250;37.668;2023-07-29T10:54:13;98545.66;;;16.68;80.98
45369;BME280;51342;55.250;37.668;2023-07-29T10:56:49;98549.22;;;16.71;81.49
45369;BME280;51342;55.250;37.668;2023-07-29T11:01:58;98548.56;;;16.85;81.80
45369;BME280;51342;55.250;37.668;2023-07-29T11:04:30;98553.88;;;16.91;81.28
45369;BME280;51342;55.250;37.668;2023-07-29T11:12:51;98566.78;;;16.82;80.25
45369;BME280;51342;55.250;37.668;2023-07-29T11:15:27;98560.69;;;16.80;80.00
45369;BME280;51342;55.250;37.668;2023-07-29T11:18:00;98561.56;;;16.84;80.24
45369;BME280;51342;55.250;37.668;2023-07-29T11:20:33;98563.38;;;16.88;79.95
45369;BME280;51342;55.250;37.668;2023-07-29T11:23:05;98561.66;;;16.88;80.10
45369;BME280;51342;55.250;37.668;2023-07-29T11:25:37;98566.06;;;16.94;80.51
45369;BME280;51342;55.250;37.668;2023-07-29T11:28:09;98562.59;;;16.95;80.39
45369;BME280;51342;55.250;37.668;2023-07-29T11:33:34;98570.44;;;16.93;80.49
45369;BME280;51342;55.250;37.668;2023-07-29T11:36:06;98577.53;;;17.04;80.29
45369;BME280;51342;55.250;37.668;2023-07-29T11:38:39;98571.50;;;17.08;80.99
45369;BME280;51342;55.250;37.668;2023-07-29T11:41:10;98578.50;;;17.12;80.66
45369;BME280;51342;55.250;37.668;2023-07-29T11:43:43;98576.84;;;17.17;80.66
45369;BME280;51342;55.250;37.668;2023-07-29T11:46:14;98570.81;;;17.24;80.49
45369;BME280;51342;55.250;37.668;2023-07-29T11:48:46;98577.00;;;17.29;80.60
45369;BME280;51342;55.250;37.668;2023-07-29T11:51:17;98577.94;;;17.34;80.66
45369;BME280;51342;55.250;37.668;2023-07-29T11:53:49;98578.84;;;17.36;79.98
45369;BME280;51342;55.250;37.668;2023-07-29T11:56:20;98581.47;;;17.36;79.96
45369;BME280;51342;55.250;37.668;2023-07-29T11:58:53;98585.91;;;17.43;80.70
45369;BME280;51342;55.250;37.668;2023-07-29T12:01:25;98578.06;;;17.43;80.01
45369;BME280;51342;55.250;37.668;2023-07-29T12:03:57;98582.41;;;17.44;79.92
45369;BME280;51342;55.250;37.668;2023-07-29T12:06:29;98578.88;;;17.41;79.90
45369;BME280;51342;55.250;37.668;2023-07-29T12:09:02;98582.34;;;17.37;79.58
45369;BME280;51342;55.250;37.668;2023-07-29T12:11:34;98574.44;;;17.34;79.93
45369;BME280;51342;55.250;37.668;2023-07-29T12:14:07;98572.69;;;17.34;80.39
45369;BME280;51342;55.250;37.668;2023-07-29T12:16:43;98571.84;;;17.35;79.70
45369;BME280;51342;55.250;37.668;2023-07-29T12:19:15;98573.63;;;17.38;80.00
45369;BME280;51342;55.250;37.668;2023-07-29T12:21:48;98574.50;;;17.40;79.86
45369;BME280;51342;55.250;37.668;2023-07-29T12:24:22;98572.69;;;17.34;79.10
45369;BME280;51342;55.250;37.668;2023-07-29T12:26:54;98571.81;;;17.34;78.96
45369;BME280;51342;55.250;37.668;2023-07-29T12:29:25;98577.06;;;17.35;78.69
45369;BME280;51342;55.250;37.668;2023-07-29T12:32:06;98577.00;;;17.29;78.65
45369;BME280;51342;55.250;37.668;2023-07-29T12:34:38;98571.75;;;17.29;79.02
45369;BME280;51342;55.250;37.668;2023-07-29T12:37:10;98575.25;;;17.30;79.09
45369;BME280;51342;55.250;37.668;2023-07-29T12:39:41;98578.78;;;17.33;79.29
45369;BME280;51342;55.250;37.668;2023-07-29T12:42:13;98577.97;;;17.36;79.16
45369;BME280;51342;55.250;37.668;2023-07-29T12:44:45;98576.22;;;17.36;78.88
45369;BME280;51342;55.250;37.668;2023-07-29T12:47:16;98574.44;;;17.34;78.91
45369;BME280;51342;55.250;37.668;2023-07-29T12:49:47;98581.41;;;17.35;78.73
45369;BME280;51342;55.250;37.668;2023-07-29T12:52:19;98577.06;;;17.34;79.22
45369;BME280;51342;55.250;37.668;2023-07-29T12:54:50;98579.69;;;17.35;79.51
45369;BME280;51342;55.250;37.668;2023-07-29T12:57:21;98573.63;;;17.36;79.46
45369;BME280;51342;55.250;37.668;2023-07-29T12:59:53;98571.84;;;17.35;79.65
45369;BME280;51342;55.250;37.668;2023-07-29T13:02:24;98574.44;;;17.35;79.44
45369;BME280;51342;55.250;37.668;2023-07-29T13:04:56;98577.13;;;17.40;79.69
45369;BME280;51342;55.250;37.668;2023-07-29T13:07:27;98570.19;;;17.42;79.59
45369;BME280;51342;55.250;37.668;2023-07-29T13:09:58;98568.41;;;17.39;79.21
45369;BME280;51342;55.250;37.668;2023-07-29T13:12:30;98575.38;;;17.37;79.17
45369;BME280;51342;55.250;37.668;2023-07-29T13:15:01;98581.41;;;17.35;79.54
45369;BME280;51342;55.250;37.668;2023-07-29T13:17:33;98577.06;;;17.34;79.04
45369;BME280;51342;55.250;37.668;2023-07-29T13:20:06;98568.34;;;17.33;79.39
45369;BME280;51342;55.250;37.668;2023-07-29T13:22:37;98560.47;;;17.30;79.16
45369;BME280;51342;55.250;37.668;2023-07-29T13:25:09;98560.47;;;17.32;79.14
45369;BME280;51342;55.250;37.668;2023-07-29T13:27:40;98558.75;;;17.32;79.83
45369;BME280;51342;55.250;37.668;2023-07-29T13:30:11;98564.03;;;17.38;79.96
45369;BME280;51342;55.250;37.668;2023-07-29T13:35:49;98557.88;;;17.33;78.66
45369;BME280;51342;55.250;37.668;2023-07-29T13:38:21;98561.31;;;17.29;79.04
45369;BME280;51342;55.250;37.668;2023-07-29T13:40:52;98557.81;;;17.27;79.25
45369;BME280;51342;55.250;37.668;2023-07-29T13:43:24;98561.34;;;17.32;79.62
45369;BME280;51342;55.250;37.668;2023-07-29T13:45:55;98558.75;;;17.32;79.73
45369;BME280;51342;55.250;37.668;2023-07-29T13:48:27;98560.47;;;17.30;78.67
45369;BME280;51342;55.250;37.668;2023-07-29T13:50:58;98558.75;;;17.32;79.25
45369;BME280;51342;55.250;37.668;2023-07-29T13:53:29;98544.81;;;17.33;79.32
45369;BME280;51342;55.250;37.668;2023-07-29T13:56:01;98546.56;;;17.34;79.46
45369;BME280;51342;55.250;37.668;2023-07-29T13:58:32;98553.56;;;17.37;79.03
45369;BME280;51342;55.250;37.668;2023-07-29T14:01:04;98553.59;;;17.38;79.00
45369;BME280;51342;55.250;37.668;2023-07-29T14:03:35;98555.34;;;17.41;79.49
45369;BME280;51342;55.250;37.668;2023-07-29T14:06:06;98553.66;;;17.46;79.28